createdAt,value
2016-02-25T00:00:30.570Z,85.03
2016-02-25T00:01:30.527Z,85.13
2016-02-25T00:02:30.545Z,84.98
2016-02-25T00:03:30.422Z,85.07
2016-02-25T00:04:30.363Z,84.94
2016-02-25T00:05:30.272Z,85.03
2016-02-25T00:06:30.322Z,85.07
2016-02-25T00:07:30.183Z,84.88
2016-02-25T00:08:30.123Z,84.59
2016-02-25T00:09:30.080Z,84.74
2016-02-25T00:10:30.019Z,84.98
2016-02-25T00:11:29.976Z,84.59
2016-02-25T00:12:29.884Z,84.84
2016-02-25T00:13:29.855Z,84.69
2016-02-25T00:14:29.828Z,85.07
2016-02-25T00:15:29.752Z,85.41
2016-02-25T00:16:29.708Z,85.22
2016-02-25T00:17:29.648Z,85.22
2016-02-25T00:18:29.588Z,84.94
2016-02-25T00:19:29.497Z,84.5
2016-02-25T00:20:29.437Z,85.03
2016-02-25T00:21:29.409Z,85.03
2016-02-25T00:22:29.333Z,85.22
2016-02-25T00:23:29.273Z,85.22
2016-02-25T00:24:29.198Z,85.41
2016-02-25T00:25:29.169Z,85.69
2016-02-25T00:26:29.094Z,85.5
2016-02-25T00:27:29.019Z,85.69
2016-02-25T00:28:28.990Z,85.78
2016-02-25T00:29:28.929Z,85.69
2016-02-25T00:30:28.854Z,85.5
2016-02-25T00:31:28.810Z,85.78
2016-02-25T00:32:28.751Z,85.78
2016-02-25T00:33:28.690Z,85.69
2016-02-25T00:34:28.631Z,85.5
2016-02-25T00:35:28.556Z,85.5
2016-02-25T00:36:28.511Z,85.88
2016-02-25T00:37:28.452Z,85.78
2016-02-25T00:38:28.408Z,86.16
2016-02-25T00:39:28.348Z,86.16
2016-02-25T00:40:28.272Z,85.6
2016-02-25T00:41:28.212Z,85.69
2016-02-25T00:42:28.153Z,85.6
2016-02-25T00:43:28.124Z,85.6
2016-02-25T00:44:28.049Z,85.78
2016-02-25T00:45:27.989Z,86.07
2016-02-25T00:46:27.929Z,85.97
2016-02-25T00:47:27.886Z,85.5
2016-02-25T00:48:27.825Z,85.69
2016-02-25T00:49:27.781Z,86.07
2016-02-25T00:50:27.705Z,86.16
2016-02-25T00:51:27.646Z,86.16
2016-02-25T00:52:27.586Z,85.88
2016-02-25T00:53:27.526Z,85.88
2016-02-25T00:54:27.466Z,85.97
2016-02-25T00:55:27.421Z,85.88
2016-02-25T00:56:27.362Z,85.97
2016-02-25T00:57:27.287Z,86.07
2016-02-25T00:58:27.212Z,85.97
2016-02-25T00:59:27.229Z,85.78
2016-02-25T01:00:27.123Z,85.6
2016-02-25T01:01:27.063Z,85.88
2016-02-25T01:02:27.003Z,85.97
2016-02-25T01:03:27.068Z,85.78
2016-02-25T01:04:26.915Z,85.88
2016-02-25T01:05:26.823Z,86.16
2016-02-25T01:06:26.795Z,85.78
2016-02-25T01:07:26.720Z,85.69
2016-02-25T01:08:26.660Z,86.74
2016-02-25T01:09:26.600Z,86.55
2016-02-25T01:10:26.540Z,86.16
2016-02-25T01:11:26.497Z,86.55
2016-02-25T01:12:26.436Z,85.78
2016-02-25T01:13:26.392Z,85.69
2016-02-25T01:14:26.333Z,86.35
2016-02-25T01:15:26.257Z,86.26
2016-02-25T01:16:26.197Z,86.26
2016-02-25T01:17:26.138Z,86.35
2016-02-25T01:18:26.093Z,86.26
2016-02-25T01:19:25.986Z,86.26
2016-02-25T01:20:25.974Z,86.74
2016-02-25T01:21:25.899Z,86.55
2016-02-25T01:22:25.932Z,86.55
2016-02-25T01:23:25.794Z,85.88
2016-02-25T01:24:25.719Z,86.35
2016-02-25T01:25:25.690Z,86.55
2016-02-25T01:26:25.630Z,86.64
2016-02-25T01:27:25.602Z,86.26
2016-02-25T01:28:25.527Z,86.16
2016-02-25T01:29:25.435Z,86.26
2016-02-25T01:30:25.407Z,86.45
2016-02-25T01:31:25.315Z,86.16
2016-02-25T01:32:25.287Z,86.26
2016-02-25T01:33:25.227Z,85.78
2016-02-25T01:34:25.246Z,86.45
2016-02-25T01:35:25.107Z,86.55
2016-02-25T01:36:25.095Z,86.45
2016-02-25T01:37:24.988Z,85.88
2016-02-25T01:38:24.944Z,86.07
2016-02-25T01:39:24.868Z,86.55
2016-02-25T01:40:24.840Z,86.55
2016-02-25T01:41:24.796Z,86.55
2016-02-25T01:42:24.705Z,85.88
2016-02-25T01:43:24.692Z,85.88
2016-02-25T01:44:24.586Z,86.07
2016-02-25T01:45:24.542Z,85.97
2016-02-25T01:46:24.466Z,86.45
2016-02-25T01:47:24.405Z,86.16
2016-02-25T01:48:24.346Z,86.45
2016-02-25T01:49:24.302Z,86.64
2016-02-25T01:50:24.242Z,86.55
2016-02-25T01:51:24.183Z,86.74
2016-02-25T01:52:24.122Z,86.16
2016-02-25T01:53:24.047Z,86.45
2016-02-25T01:54:24.002Z,86.93
2016-02-25T01:55:23.974Z,86.83
2016-02-25T01:56:23.883Z,86.93
2016-02-25T01:57:23.901Z,86.93
2016-02-25T01:58:23.779Z,87.02
2016-02-25T01:59:23.751Z,86.64
2016-02-25T02:00:23.721Z,87.02
2016-02-25T02:01:23.646Z,86.93
2016-02-25T02:02:23.555Z,86.93
2016-02-25T02:03:23.496Z,86.93
2016-02-25T02:04:23.452Z,86.74
2016-02-25T02:05:23.360Z,87.02
2016-02-25T02:06:23.345Z,87.02
2016-02-25T02:07:23.643Z,86.45
2016-02-25T02:08:23.171Z,86.64
2016-02-25T02:09:23.116Z,86.07
2016-02-25T02:10:23.175Z,86.83
2016-02-25T02:11:23.053Z,86.83
2016-02-25T02:12:22.992Z,86.16
2016-02-25T02:13:22.886Z,86.26
2016-02-25T02:14:22.857Z,86.26
2016-02-25T02:15:22.782Z,86.16
2016-02-25T02:16:22.722Z,86.45
2016-02-25T02:17:22.663Z,86.26
2016-02-25T02:18:22.618Z,86.16
2016-02-25T02:19:22.558Z,86.26
2016-02-25T02:20:22.499Z,86.64
2016-02-25T02:21:22.471Z,86.93
2016-02-25T02:22:22.520Z,86.83
2016-02-25T02:23:22.304Z,86.93
2016-02-25T02:24:22.243Z,86.83
2016-02-25T02:25:22.512Z,86.83
2016-02-25T02:26:22.234Z,86.64
2016-02-25T02:27:22.126Z,86.64
2016-02-25T02:28:22.082Z,86.83
2016-02-25T02:29:21.976Z,87.68
2016-02-25T02:30:21.963Z,87.59
2016-02-25T02:31:21.872Z,86.83
2016-02-25T02:32:21.796Z,87.59
2016-02-25T02:33:21.753Z,87.02
2016-02-25T02:34:21.677Z,86.93
2016-02-25T02:35:21.476Z,86.83
2016-02-25T02:36:21.589Z,86.83
2016-02-25T02:37:21.576Z,86.74
2016-02-25T02:38:21.437Z,86.83
2016-02-25T02:39:21.409Z,86.83
2016-02-25T02:40:21.334Z,86.64
2016-02-25T02:41:21.274Z,87.02
2016-02-25T02:42:21.245Z,86.93
2016-02-25T02:43:21.139Z,86.64
2016-02-25T02:44:21.158Z,86.83
2016-02-25T02:45:21.097Z,86.93
2016-02-25T02:46:20.990Z,86.93
2016-02-25T02:47:20.931Z,86.83
2016-02-25T02:48:20.871Z,86.64
2016-02-25T02:49:20.811Z,86.83
2016-02-25T02:50:20.782Z,86.93
2016-02-25T02:51:20.691Z,86.74
2016-02-25T02:52:20.710Z,86.83
2016-02-25T02:53:19.852Z,86.83
2016-02-25T02:54:20.527Z,87.49
2016-02-25T02:55:20.452Z,87.59
2016-02-25T02:56:20.486Z,87.4
2016-02-25T02:57:20.410Z,87.02
2016-02-25T02:58:20.288Z,86.74
2016-02-25T02:59:20.228Z,86.83
2016-02-25T03:00:20.168Z,87.21
2016-02-25T03:01:20.108Z,86.83
2016-02-25T03:02:20.048Z,86.93
2016-02-25T03:03:20.004Z,86.93
2016-02-25T03:04:19.961Z,86.93
2016-02-25T03:05:19.874Z,86.74
2016-02-25T03:06:19.800Z,86.74
2016-02-25T03:07:19.833Z,86.64
2016-02-25T03:08:19.757Z,86.93
2016-02-25T03:09:19.651Z,87.02
2016-02-25T03:10:19.591Z,86.93
2016-02-25T03:11:19.609Z,86.83
2016-02-25T03:12:19.487Z,86.93
2016-02-25T03:13:19.427Z,86.74
2016-02-25T03:14:19.414Z,87.12
2016-02-25T03:15:19.307Z,86.93
2016-02-25T03:16:19.248Z,86.83
2016-02-25T03:17:19.172Z,86.83
2016-02-25T03:18:19.128Z,86.93
2016-02-25T03:19:19.084Z,86.83
2016-02-25T03:20:19.024Z,86.64
2016-02-25T03:21:18.980Z,86.83
2016-02-25T03:22:18.920Z,86.93
2016-02-25T03:23:18.861Z,87.02
2016-02-25T03:24:18.769Z,87.02
2016-02-25T03:25:18.569Z,86.93
2016-02-25T03:26:18.665Z,86.83
2016-02-25T03:27:18.621Z,86.64
2016-02-25T03:28:18.608Z,86.93
2016-02-25T03:29:18.501Z,86.83
2016-02-25T03:30:18.488Z,86.93
2016-02-25T03:31:18.382Z,86.83
2016-02-25T03:32:18.322Z,86.64
2016-02-25T03:33:18.247Z,87.12
2016-02-25T03:34:18.187Z,86.83
2016-02-25T03:35:18.128Z,86.83
2016-02-25T03:36:18.083Z,87.12
2016-02-25T03:37:18.086Z,86.93
2016-02-25T03:38:17.979Z,86.93
2016-02-25T03:39:17.888Z,86.74
2016-02-25T03:40:17.858Z,86.93
2016-02-25T03:41:17.877Z,86.64
2016-02-25T03:42:17.739Z,86.64
2016-02-25T03:43:17.680Z,86.35
2016-02-25T03:44:17.620Z,86.93
2016-02-25T03:45:17.561Z,86.93
2016-02-25T03:46:17.500Z,86.83
2016-02-25T03:47:17.799Z,86.45
2016-02-25T03:48:17.365Z,86.83
2016-02-25T03:49:17.352Z,86.93
2016-02-25T03:50:17.293Z,86.45
2016-02-25T03:51:17.216Z,86.93
2016-02-25T03:52:17.141Z,86.93
2016-02-25T03:53:17.143Z,86.74
2016-02-25T03:54:17.054Z,86.74
2016-02-25T03:55:16.977Z,86.83
2016-02-25T03:56:16.918Z,86.93
2016-02-25T03:57:16.889Z,86.83
2016-02-25T03:58:16.798Z,86.74
2016-02-25T03:59:16.770Z,87.12
2016-02-25T04:00:16.740Z,87.68
2016-02-25T04:01:16.650Z,87.59
2016-02-25T04:02:16.575Z,87.59
2016-02-25T04:03:16.515Z,87.59
2016-02-25T04:04:16.455Z,87.4
2016-02-25T04:05:16.429Z,87.21
2016-02-25T04:06:16.384Z,87.12
2016-02-25T04:07:16.310Z,87.49
2016-02-25T04:08:16.281Z,87.59
2016-02-25T04:09:16.158Z,87.3
2016-02-25T04:10:16.131Z,87.4
2016-02-25T04:11:16.055Z,87.49
2016-02-25T04:12:16.011Z,87.4
2016-02-25T04:13:15.935Z,87.3
2016-02-25T04:14:15.875Z,87.21
2016-02-25T04:15:15.847Z,87.12
2016-02-25T04:16:15.772Z,87.21
2016-02-25T04:17:15.821Z,87.4
2016-02-25T04:18:15.699Z,86.83
2016-02-25T04:19:15.592Z,86.93
2016-02-25T04:20:15.533Z,87.12
2016-02-25T04:21:15.457Z,87.4
2016-02-25T04:22:15.427Z,87.59
2016-02-25T04:23:15.368Z,87.4
2016-02-25T04:24:15.340Z,87.3
2016-02-25T04:25:15.264Z,86.93
2016-02-25T04:26:15.157Z,86.93
2016-02-25T04:27:15.161Z,87.68
2016-02-25T04:28:15.085Z,87.3
2016-02-25T04:29:15.009Z,86.83
2016-02-25T04:30:14.965Z,86.93
2016-02-25T04:31:14.906Z,87.02
2016-02-25T04:32:14.829Z,86.83
2016-02-25T04:33:14.848Z,86.45
2016-02-25T04:34:14.726Z,87.02
2016-02-25T04:35:14.681Z,87.4
2016-02-25T04:36:14.669Z,86.83
2016-02-25T04:37:14.547Z,87.02
2016-02-25T04:38:14.534Z,87.59
2016-02-25T04:39:14.505Z,87.4
2016-02-25T04:40:14.351Z,87.49
2016-02-25T04:41:14.292Z,86.93
2016-02-25T04:42:14.248Z,86.93
2016-02-25T04:43:14.172Z,86.74
2016-02-25T04:44:14.127Z,86.74
2016-02-25T04:45:14.069Z,86.45
2016-02-25T04:46:14.039Z,86.93
2016-02-25T04:47:13.964Z,86.83
2016-02-25T04:48:13.967Z,86.83
2016-02-25T04:49:13.829Z,86.93
2016-02-25T04:50:13.769Z,87.07
2016-02-25T04:51:13.725Z,86.93
2016-02-25T04:52:13.728Z,87.02
2016-02-25T04:53:13.683Z,86.64
2016-02-25T04:54:13.545Z,86.83
2016-02-25T04:55:13.516Z,86.83
2016-02-25T04:56:13.441Z,86.83
2016-02-25T04:57:13.365Z,86.74
2016-02-25T04:58:13.321Z,86.83
2016-02-25T04:59:13.356Z,86.74
2016-02-25T05:00:13.171Z,87.4
2016-02-25T05:01:13.143Z,86.83
2016-02-25T05:02:13.098Z,86.93
2016-02-25T05:03:13.007Z,87.45
2016-02-25T05:04:12.948Z,88.4
2016-02-25T05:05:12.981Z,87.54
2016-02-25T05:06:12.906Z,87.35
2016-02-25T05:07:12.799Z,87.49
2016-02-25T05:08:12.771Z,87.4
2016-02-25T05:09:12.711Z,87.54
2016-02-25T05:10:12.636Z,87.45
2016-02-25T05:11:12.576Z,86.98
2016-02-25T05:12:12.531Z,87.54
2016-02-25T05:13:12.456Z,87.35
2016-02-25T05:14:12.411Z,86.98
2016-02-25T05:15:12.368Z,87.35
2016-02-25T05:16:12.323Z,87.83
2016-02-25T05:17:12.217Z,87.83
2016-02-25T05:18:12.157Z,87.45
2016-02-25T05:19:12.175Z,87.73
2016-02-25T05:20:11.913Z,87.92
2016-02-25T05:21:11.978Z,87.35
2016-02-25T05:22:11.918Z,87.07
2016-02-25T05:23:11.905Z,87.45
2016-02-25T05:24:11.799Z,87.73
2016-02-25T05:25:11.754Z,87.73
2016-02-25T05:26:11.694Z,87.92
2016-02-25T05:27:11.619Z,87.92
2016-02-25T05:28:11.590Z,87.73
2016-02-25T05:29:11.515Z,87.73
2016-02-25T05:30:11.455Z,87.49
2016-02-25T05:31:11.474Z,87.35
2016-02-25T05:32:11.351Z,87.26
2016-02-25T05:33:11.259Z,87.45
2016-02-25T05:34:11.294Z,86.69
2016-02-25T05:35:11.156Z,87.64
2016-02-25T05:36:11.096Z,87.35
2016-02-25T05:37:11.052Z,87.45
2016-02-25T05:38:11.554Z,87.45
2016-02-25T05:39:10.979Z,87.26
2016-02-25T05:40:10.920Z,87.45
2016-02-25T05:41:10.876Z,87.45
2016-02-25T05:42:10.784Z,87.07
2016-02-25T05:43:10.708Z,87.35
2016-02-25T05:44:10.727Z,87.35
2016-02-25T05:45:10.589Z,87.45
2016-02-25T05:46:10.529Z,87.16
2016-02-25T05:47:10.485Z,87.73
2016-02-25T05:48:10.394Z,87.26
2016-02-25T05:49:10.396Z,87.73
2016-02-25T05:50:10.289Z,87.83
2016-02-25T05:51:10.214Z,87.35
2016-02-25T05:52:10.155Z,87.64
2016-02-25T05:53:10.094Z,87.45
2016-02-25T05:54:10.098Z,87.35
2016-02-25T05:55:09.990Z,87.54
2016-02-25T05:56:09.947Z,87.26
2016-02-25T05:57:09.871Z,87.45
2016-02-25T05:58:09.827Z,87.35
2016-02-25T05:59:09.768Z,87.45
2016-02-25T06:00:09.708Z,87.35
2016-02-25T06:01:09.648Z,86.98
2016-02-25T06:02:09.556Z,86.88
2016-02-25T06:03:09.496Z,86.69
2016-02-25T06:04:09.484Z,86.79
2016-02-25T06:05:09.377Z,87.45
2016-02-25T06:06:09.396Z,87.54
2016-02-25T06:07:09.273Z,87.54
2016-02-25T06:08:09.213Z,87.16
2016-02-25T06:09:09.215Z,87.26
2016-02-25T06:10:09.126Z,87.16
2016-02-25T06:11:09.081Z,87.26
2016-02-25T06:12:10.724Z,87.45
2016-02-25T06:13:08.945Z,87.83
2016-02-25T06:14:08.870Z,88.96
2016-02-25T06:15:08.811Z,88.87
2016-02-25T06:16:08.750Z,88.78
2016-02-25T06:17:08.675Z,88.4
2016-02-25T06:18:08.647Z,88.49
2016-02-25T06:19:08.587Z,88.11
2016-02-25T06:20:08.511Z,87.83
2016-02-25T06:21:08.436Z,87.73
2016-02-25T06:22:08.408Z,87.92
2016-02-25T06:23:08.410Z,87.45
2016-02-25T06:24:08.303Z,87.64
2016-02-25T06:25:08.228Z,87.35
2016-02-25T06:26:08.261Z,87.45
2016-02-25T06:27:08.093Z,87.73
2016-02-25T06:28:08.127Z,87.73
2016-02-25T06:29:07.974Z,88.02
2016-02-25T06:30:07.913Z,87.54
2016-02-25T06:31:07.869Z,88.11
2016-02-25T06:32:07.809Z,87.92
2016-02-25T06:33:07.765Z,87.83
2016-02-25T06:34:07.705Z,88.02
2016-02-25T06:35:07.676Z,88.4
2016-02-25T06:36:07.554Z,87.83
2016-02-25T06:37:07.510Z,87.54
2016-02-25T06:38:07.465Z,87.73
2016-02-25T06:39:07.500Z,87.92
2016-02-25T06:40:07.331Z,87.92
2016-02-25T06:41:07.287Z,88.11
2016-02-25T06:42:07.242Z,88.68
2016-02-25T06:43:07.167Z,88.21
2016-02-25T06:44:07.091Z,88.49
2016-02-25T06:45:07.063Z,87.83
2016-02-25T06:46:07.003Z,88.3
2016-02-25T06:47:06.959Z,87.92
2016-02-25T06:48:06.915Z,87.83
2016-02-25T06:49:06.855Z,87.83
2016-02-25T06:50:06.748Z,87.83
2016-02-25T06:51:06.719Z,87.54
2016-02-25T06:52:06.739Z,87.83
2016-02-25T06:53:06.631Z,88.3
2016-02-25T06:54:06.556Z,88.21
2016-02-25T06:55:06.481Z,88.4
2016-02-25T06:56:06.388Z,88.21
2016-02-25T06:57:06.361Z,88.49
2016-02-25T06:58:06.864Z,88.3
2016-02-25T06:59:06.236Z,88.21
2016-02-25T07:00:06.146Z,88.02
2016-02-25T07:01:06.649Z,87.92
2016-02-25T07:02:06.057Z,88.21
2016-02-25T07:03:05.952Z,88.49
2016-02-25T07:04:05.850Z,87.45
2016-02-25T07:05:05.989Z,88.02
2016-02-25T07:06:05.868Z,87.83
2016-02-25T07:07:05.709Z,87.54
2016-02-25T07:08:05.660Z,87.73
2016-02-25T07:09:05.564Z,87.54
2016-02-25T07:10:05.659Z,87.83
2016-02-25T07:11:05.426Z,87.73
2016-02-25T07:12:05.442Z,87.92
2016-02-25T07:13:05.303Z,87.54
2016-02-25T07:14:05.257Z,87.54
2016-02-25T07:15:05.196Z,87.64
2016-02-25T07:16:05.151Z,87.35
2016-02-25T07:17:05.185Z,87.16
2016-02-25T07:18:05.076Z,87.45
2016-02-25T07:19:05.142Z,87.35
2016-02-25T07:20:04.910Z,87.16
2016-02-25T07:21:04.835Z,87.64
2016-02-25T07:22:04.822Z,87.35
2016-02-25T07:23:04.715Z,87.35
2016-02-25T07:24:04.656Z,87.26
2016-02-25T07:25:04.626Z,86.98
2016-02-25T07:26:04.551Z,86.69
2016-02-25T07:27:04.491Z,86.98
2016-02-25T07:28:04.432Z,86.79
2016-02-25T07:29:04.371Z,86.98
2016-02-25T07:30:04.280Z,86.79
2016-02-25T07:31:04.236Z,87.07
2016-02-25T07:32:04.224Z,87.26
2016-02-25T07:33:04.211Z,87.16
2016-02-25T07:34:04.104Z,87.54
2016-02-25T07:35:04.029Z,87.35
2016-02-25T07:36:04.015Z,87.35
2016-02-25T07:37:03.893Z,87.54
2016-02-25T07:38:03.834Z,87.45
2016-02-25T07:39:03.821Z,87.45
2016-02-25T07:40:03.714Z,87.73
2016-02-25T07:41:03.670Z,87.73
2016-02-25T07:42:03.578Z,87.64
2016-02-25T07:43:03.425Z,87.35
2016-02-25T07:44:03.490Z,87.45
2016-02-25T07:45:03.493Z,87.73
2016-02-25T07:46:03.370Z,87.83
2016-02-25T07:47:03.311Z,88.02
2016-02-25T07:48:03.236Z,87.73
2016-02-25T07:49:03.191Z,87.07
2016-02-25T07:50:03.537Z,87.35
2016-02-25T07:51:03.164Z,87.49
2016-02-25T07:52:03.075Z,87.92
2016-02-25T07:53:02.952Z,87.77
2016-02-25T07:54:02.923Z,87.49
2016-02-25T07:55:02.972Z,87.4
2016-02-25T07:56:02.913Z,87.26
2016-02-25T07:57:02.744Z,87.68
2016-02-25T07:58:02.699Z,87.12
2016-02-25T07:59:02.844Z,87.21
2016-02-25T08:00:02.736Z,87.12
2016-02-25T08:01:02.552Z,87.68
2016-02-25T08:02:02.491Z,87.12
2016-02-25T08:03:02.401Z,86.64
2016-02-25T08:04:02.544Z,86.83
2016-02-25T08:05:02.297Z,86.64
2016-02-25T08:06:02.221Z,86.26
2016-02-25T08:07:02.177Z,86.6
2016-02-25T08:08:02.148Z,86.26
2016-02-25T08:09:02.010Z,86.26
2016-02-25T08:10:01.982Z,86.6
2016-02-25T08:11:01.907Z,86.5
2016-02-25T08:12:01.846Z,86.26
2016-02-25T08:13:01.865Z,86.35
2016-02-25T08:14:01.774Z,86.55
2016-02-25T08:15:01.683Z,86.26
2016-02-25T08:16:01.654Z,86.45
2016-02-25T08:17:01.563Z,86.74
2016-02-25T08:18:01.519Z,86.16
2016-02-25T08:19:01.459Z,86.55
2016-02-25T08:20:01.399Z,86.64
2016-02-25T08:21:01.418Z,86.45
2016-02-25T08:22:01.327Z,85.88
2016-02-25T08:23:01.548Z,85.93
2016-02-25T08:24:01.128Z,85.88
2016-02-25T08:25:01.147Z,85.69
2016-02-25T08:26:01.025Z,86.64
2016-02-25T08:27:00.981Z,86.64
2016-02-25T08:28:00.953Z,86.26
2016-02-25T08:29:00.892Z,86.26
2016-02-25T08:30:00.958Z,86.45
2016-02-25T08:31:00.851Z,86.74
2016-02-25T08:32:00.682Z,86.16
2016-02-25T08:33:00.637Z,85.78
2016-02-25T08:34:00.593Z,85.88
2016-02-25T08:35:00.627Z,85.88
2016-02-25T08:36:00.505Z,85.97
2016-02-25T08:37:00.508Z,85.97
2016-02-25T08:38:00.636Z,85.97
2016-02-25T08:39:00.294Z,86.55
2016-02-25T08:40:00.235Z,86.26
2016-02-25T08:41:00.160Z,85.69
2016-02-25T08:42:00.209Z,85.69
2016-02-25T08:43:00.086Z,85.97
2016-02-25T08:44:00.090Z,85.97
2016-02-25T08:44:59.998Z,85.97
2016-02-25T08:45:59.892Z,86.07
2016-02-25T08:46:59.895Z,85.88
2016-02-25T08:47:59.912Z,86.07
2016-02-25T08:48:59.712Z,85.78
2016-02-25T08:49:59.636Z,85.97
2016-02-25T08:50:59.639Z,86.07
2016-02-25T08:51:59.673Z,85.69
2016-02-25T08:52:59.488Z,85.41
2016-02-25T08:53:59.522Z,85.69
2016-02-25T08:54:59.384Z,85.41
2016-02-25T08:55:59.325Z,85.5
2016-02-25T08:56:59.359Z,85.22
2016-02-25T08:57:59.205Z,85.41
2016-02-25T08:58:59.145Z,85.31
2016-02-25T08:59:59.054Z,85.5
2016-02-25T09:00:59.025Z,85.41
2016-02-25T09:01:58.966Z,84.94
2016-02-25T09:02:58.921Z,84.74
2016-02-25T09:03:58.893Z,85.41
2016-02-25T09:04:59.099Z,85.03
2016-02-25T09:05:58.711Z,85.03
2016-02-25T09:06:58.714Z,84.74
2016-02-25T09:07:58.638Z,85.03
2016-02-25T09:08:58.578Z,85.31
2016-02-25T09:09:58.502Z,85.13
2016-02-25T09:10:58.427Z,84.65
2016-02-25T09:11:58.352Z,84.84
2016-02-25T09:12:58.307Z,84.55
2016-02-25T09:13:58.248Z,84.84
2016-02-25T09:14:58.187Z,85.13
2016-02-25T09:15:58.128Z,84.74
2016-02-25T09:16:58.068Z,84.36
2016-02-25T09:17:58.024Z,84.55
2016-02-25T09:18:57.996Z,84.55
2016-02-25T09:19:57.905Z,84.84
2016-02-25T09:20:57.876Z,84.65
2016-02-25T09:21:57.801Z,85.22
2016-02-25T09:22:57.617Z,85.03
2016-02-25T09:23:57.681Z,84.84
2016-02-25T09:24:57.622Z,84.88
2016-02-25T09:25:57.593Z,84.69
2016-02-25T09:26:57.533Z,84.41
2016-02-25T09:27:57.442Z,84.31
2016-02-25T09:28:57.414Z,84.74
2016-02-25T09:29:57.354Z,84.74
2016-02-25T09:30:57.263Z,84.22
2016-02-25T09:31:57.234Z,84.36
2016-02-25T09:32:57.175Z,84.84
2016-02-25T09:33:57.099Z,84.78
2016-02-25T09:34:57.087Z,84.65
2016-02-25T09:35:57.042Z,84.78
2016-02-25T09:36:56.920Z,84.78
2016-02-25T09:37:56.873Z,84.5
2016-02-25T09:38:56.813Z,84.41
2016-02-25T09:39:56.753Z,83.94
2016-02-25T09:40:56.677Z,83.94
2016-02-25T09:41:56.696Z,84.36
2016-02-25T09:42:56.558Z,84.41
2016-02-25T09:43:56.499Z,84.22
2016-02-25T09:44:56.501Z,84.41
2016-02-25T09:45:56.426Z,84.88
2016-02-25T09:46:56.413Z,84.69
2016-02-25T09:47:56.275Z,84.41
2016-02-25T09:48:56.215Z,84.22
2016-02-25T09:49:56.187Z,84.12
2016-02-25T09:50:56.127Z,83.94
2016-02-25T09:51:56.051Z,83.65
2016-02-25T09:52:55.976Z,83.84
2016-02-25T09:53:55.916Z,83.46
2016-02-25T09:54:55.888Z,84.12
2016-02-25T09:55:55.843Z,83.74
2016-02-25T09:56:55.783Z,84.41
2016-02-25T09:57:55.709Z,84.22
2016-02-25T09:58:55.679Z,84.41
2016-02-25T09:59:55.604Z,83.74
2016-02-25T10:00:55.528Z,83.74
2016-02-25T10:01:55.531Z,83.84
2016-02-25T10:02:55.581Z,84.12
2016-02-25T10:03:55.365Z,83.84
2016-02-25T10:04:55.320Z,83.65
2016-02-25T10:05:55.245Z,82.89
2016-02-25T10:06:55.233Z,83.42
2016-02-25T10:07:55.110Z,83.65
2016-02-25T10:08:55.081Z,83.84
2016-02-25T10:09:55.022Z,84.03
2016-02-25T10:10:54.977Z,84.65
2016-02-25T10:11:54.949Z,84.5
2016-02-25T10:12:54.858Z,84.59
2016-02-25T10:13:54.829Z,84.5
2016-02-25T10:14:54.707Z,84.41
2016-02-25T10:15:54.772Z,84.5
2016-02-25T10:16:54.696Z,84.31
2016-02-25T10:17:54.543Z,83.55
2016-02-25T10:18:54.499Z,84.12
2016-02-25T10:19:54.439Z,84.03
2016-02-25T10:20:54.441Z,83.84
2016-02-25T10:21:54.304Z,83.74
2016-02-25T10:22:54.291Z,83.65
2016-02-25T10:23:54.231Z,83.55
2016-02-25T10:24:54.187Z,83.84
2016-02-25T10:25:54.096Z,83.94
2016-02-25T10:26:54.051Z,83.84
2016-02-25T10:27:53.960Z,84.55
2016-02-25T10:28:53.917Z,84.41
2016-02-25T10:29:53.872Z,84.41
2016-02-25T10:30:53.812Z,83.84
2016-02-25T10:31:53.753Z,84.12
2016-02-25T10:32:53.709Z,83.55
2016-02-25T10:33:53.633Z,83.65
2016-02-25T10:34:53.573Z,83.65
2016-02-25T10:35:53.607Z,83.74
2016-02-25T10:36:53.469Z,84.03
2016-02-25T10:37:53.378Z,84.03
2016-02-25T10:38:53.349Z,83.94
2016-02-25T10:39:53.321Z,84.31
2016-02-25T10:40:53.214Z,83.84
2016-02-25T10:41:53.155Z,84.88
2016-02-25T10:42:53.111Z,84.55
2016-02-25T10:43:53.020Z,84.78
2016-02-25T10:44:53.006Z,84.5
2016-02-25T10:45:52.931Z,84.88
2016-02-25T10:46:52.903Z,84.69
2016-02-25T10:47:52.811Z,84.41
2016-02-25T10:48:52.752Z,84.03
2016-02-25T10:49:52.707Z,84.41
2016-02-25T10:50:52.616Z,83.84
2016-02-25T10:51:52.572Z,84.12
2016-02-25T10:52:52.544Z,83.84
2016-02-25T10:53:52.452Z,84.03
2016-02-25T10:54:52.393Z,84.22
2016-02-25T10:55:52.332Z,84.41
2016-02-25T10:56:52.288Z,84.03
2016-02-25T10:57:52.323Z,83.55
2016-02-25T10:58:52.153Z,84.17
2016-02-25T10:59:52.126Z,84.55
2016-02-25T11:00:52.049Z,84.5
2016-02-25T11:01:51.974Z,84.59
2016-02-25T11:02:51.962Z,83.94
2016-02-25T11:03:51.886Z,84.12
2016-02-25T11:04:51.810Z,84.03
2016-02-25T11:05:51.798Z,84.22
2016-02-25T11:06:51.707Z,84.12
2016-02-25T11:07:51.648Z,84.03
2016-02-25T11:08:51.587Z,83.94
2016-02-25T11:09:51.528Z,83.94
2016-02-25T11:10:51.468Z,83.65
2016-02-25T11:11:51.440Z,83.94
2016-02-25T11:12:51.379Z,83.55
2016-02-25T11:13:51.429Z,82.98
2016-02-25T11:14:51.354Z,83.36
2016-02-25T11:15:51.184Z,83.36
2016-02-25T11:16:51.140Z,83.36
2016-02-25T11:17:51.081Z,83.08
2016-02-25T11:18:51.067Z,83.17
2016-02-25T11:19:50.976Z,83.27
2016-02-25T11:20:50.917Z,83.27
2016-02-25T11:21:50.967Z,82.32
2016-02-25T11:22:50.797Z,83.17
2016-02-25T11:23:50.723Z,83.17
2016-02-25T11:24:50.678Z,83.17
2016-02-25T11:25:50.664Z,83.46
2016-02-25T11:26:50.559Z,83.55
2016-02-25T11:27:50.498Z,83.36
2016-02-25T11:28:50.455Z,83.94
2016-02-25T11:29:50.410Z,83.46
2016-02-25T11:30:50.319Z,83.36
2016-02-25T11:31:50.258Z,83.08
2016-02-25T11:32:50.215Z,82.89
2016-02-25T11:33:50.155Z,83.27
2016-02-25T11:34:50.096Z,82.98
2016-02-25T11:35:49.894Z,83.17
2016-02-25T11:36:50.023Z,83.36
2016-02-25T11:37:49.947Z,83.84
2016-02-25T11:38:49.888Z,83.94
2016-02-25T11:39:49.828Z,83.36
2016-02-25T11:40:49.783Z,83.36
2016-02-25T11:41:49.724Z,82.6
2016-02-25T11:42:49.836Z,82.7
2016-02-25T11:43:49.807Z,83.08
2016-02-25T11:44:49.607Z,82.79
2016-02-25T11:45:49.719Z,83.36
2016-02-25T11:46:49.424Z,82.79
2016-02-25T11:47:49.334Z,82.98
2016-02-25T11:48:49.351Z,83.27
2016-02-25T11:49:49.229Z,82.79
2016-02-25T11:50:49.170Z,83.17
2016-02-25T11:51:49.157Z,83.55
2016-02-25T11:52:49.190Z,82.42
2016-02-25T11:53:49.162Z,81.85
2016-02-25T11:54:48.961Z,82.79
2016-02-25T11:55:48.886Z,83.08
2016-02-25T11:56:48.826Z,82.79
2016-02-25T11:57:48.767Z,83.36
2016-02-25T11:58:48.770Z,83.08
2016-02-25T11:59:48.678Z,83.17
2016-02-25T12:00:48.650Z,82.79
2016-02-25T12:01:48.544Z,82.6
2016-02-25T12:02:48.561Z,82.6
2016-02-25T12:03:47.705Z,82.51
2016-02-25T12:04:48.363Z,83.27
2016-02-25T12:05:48.320Z,82.79
2016-02-25T12:06:48.275Z,82.13
2016-02-25T12:07:48.216Z,82.32
2016-02-25T12:08:48.141Z,81.66
2016-02-25T12:09:48.080Z,81.85
2016-02-25T12:10:48.036Z,82.32
2016-02-25T12:11:47.977Z,82.23
2016-02-25T12:12:47.917Z,81.6
2016-02-25T12:13:47.872Z,82.13
2016-02-25T12:14:47.813Z,82.17
2016-02-25T12:15:47.769Z,82.32
2016-02-25T12:16:47.693Z,82.36
2016-02-25T12:17:47.649Z,82.32
2016-02-25T12:18:47.574Z,82.79
2016-02-25T12:19:47.529Z,82.65
2016-02-25T12:20:47.470Z,81.66
2016-02-25T12:21:47.409Z,81.6
2016-02-25T12:22:47.350Z,81.85
2016-02-25T12:23:47.290Z,82.08
2016-02-25T12:24:47.261Z,81.79
2016-02-25T12:25:47.014Z,82.36
2016-02-25T12:26:47.125Z,81.7
2016-02-25T12:27:47.066Z,81.85
2016-02-25T12:28:47.006Z,81.66
2016-02-25T12:29:46.947Z,81.56
2016-02-25T12:30:46.903Z,82.7
2016-02-25T12:31:46.843Z,82.79
2016-02-25T12:32:46.798Z,82.98
2016-02-25T12:33:46.723Z,82.65
2016-02-25T12:34:46.647Z,82.36
2016-02-25T12:35:46.603Z,82.98
2016-02-25T12:36:46.575Z,82.55
2016-02-25T12:37:46.484Z,82.27
2016-02-25T12:38:46.472Z,81.7
2016-02-25T12:39:46.364Z,81.79
2016-02-25T12:40:46.320Z,81.79
2016-02-25T12:41:46.260Z,81.88
2016-02-25T12:42:46.232Z,82.74
2016-02-25T12:43:46.282Z,82.6
2016-02-25T12:44:46.127Z,82.89
2016-02-25T12:45:46.037Z,85.93
2016-02-25T12:46:45.976Z,85.17
2016-02-25T12:47:46.026Z,85.55
2016-02-25T12:48:45.920Z,86.4
2016-02-25T12:49:45.829Z,87.16
2016-02-25T12:50:45.738Z,86.78
2016-02-25T12:51:45.693Z,86.97
2016-02-25T12:52:45.649Z,86.3
2016-02-25T12:53:45.652Z,86.02